ニジネヴァルトフスク の空港の天気 - METARとTAF

Nizhnevartovsk ( USNN / NJC ) - ロシア ニジネヴァルトフスク
飛行場実況気象(Metar)
観測時間06/24 14:30 YEKT (06/24 09:30 UTC)
風向・風速西南西 4m/s
視程10km以上
天気現象
なし
気温24℃
湿度41%
気圧1006hPa
METARUSNN 240930Z 24004MPS CAVOK 24/10 Q1006 R21/0///65 NOSIG RMK QFE750
過去の天気等 Google飛行場航空写真 Wunderground天気予報

過去48時間のMETAR

飛行場予報(TAF)
発表時間: 6/24 13:00 YEKT (6/24 08:00 UTC)
予報対象時間: 24日14時 YEKT ~ 25日14時 YEKT
風向・風速南西 3m/s 瞬間風速 8m/s
視程10km以上
全天の4割程度の雲 雲底高度 910m
24日14時 YEKT ~ 24日17時 YEKT に一時的に
全天の4割程度の積乱雲 雲底高度 610m
24日17時 YEKT ~ 24日23時 YEKT に一時的に
視程5000m
天気現象弱いしゅう雨
全天の8割程度の積乱雲 雲底高度 520m
25日2時 YEKT ~ 25日4時 YEKT に徐々に
風向・風速西 3m/s 瞬間風速 8m/s
TAF USNN 240800Z 2409/2509 22003G08MPS 9999 SCT030
TEMPO 2409/2412 SCT020CB
TEMPO 2412/2418 5000 -SHRA BKN017CB
BECMG 2421/2423 28003G08MPS